Nordic Currents — CFN4326 — position and weather

sailwx.info

Track history (hours):
 
Tides and Currents Weather Stations Pressure Air Temp Water Temp Dewpoint Dewpoint Depression Visibility Wind Speed Wind Dir Waves Ship Positions

Nordic Currents

Last reported at 2018-Apr-07 01:27 UTC. Time now 2018-Apr-26 21:07 UTC.
Position N 48°31' W 122°37'.
Warning: this ship's position is 19 days out of date.

Type: Pleasure craft. MMSI: 316010421.

Date/timePositionNaut miles runAvg speedWind from/ knotsBaromVisibWave heightAir tempDewpointWater temp
2018-Apr-07 01:27N 48°31' W 122°37'0 0.1
2018-Apr-07 00:51N 48°31' W 122°36'  
2018-Mar-28 22:50N 48°31' W 122°37'0 0.5
2018-Mar-28 22:26N 48°31' W 122°36'1 1.6
2018-Mar-28 21:59N 48°31' W 122°37'3 5.3
2018-Mar-28 21:30N 48°33' W 122°40'4 4.8
2018-Mar-28 20:35N 48°37' W 122°42'0 0.3
2018-Mar-28 20:19N 48°37' W 122°42'3 4.5
2018-Mar-28 19:44N 48°35' W 122°39'4 3.9
2018-Mar-28 18:35N 48°31' W 122°42'2 5.7
2018-Mar-28 18:18N 48°31' W 122°40'2 5.6
2018-Mar-28 18:00N 48°31' W 122°37'1 1.5
2018-Mar-28 17:27N 48°31' W 122°37'  
Track history (hours):
 
Tides and Currents Weather Stations Pressure Air Temp Water Temp Dewpoint Dewpoint Depression Visibility Wind Speed Wind Dir Waves Ship Positions

Nordic Currents

Last reported at 2018-Apr-07 01:27 UTC. Time now 2018-Apr-26 21:07 UTC.
Position N 48°31' W 122°37'.
Warning: this ship's position is 19 days out of date.

Type: Pleasure craft. MMSI: 316010421.

Date/timePositionNaut miles runAvg speedWind from/ knotsBaromVisibWave heightAir tempDewpointWater temp
2018-Apr-07 01:27N 48°31' W 122°37'0 0.1
2018-Apr-07 00:51N 48°31' W 122°36'  
2018-Mar-28 22:50N 48°31' W 122°37'0 0.5
2018-Mar-28 22:26N 48°31' W 122°36'1 1.6
2018-Mar-28 21:59N 48°31' W 122°37'3 5.3
2018-Mar-28 21:30N 48°33' W 122°40'4 4.8
2018-Mar-28 20:35N 48°37' W 122°42'0 0.3
2018-Mar-28 20:19N 48°37' W 122°42'3 4.5
2018-Mar-28 19:44N 48°35' W 122°39'4 3.9
2018-Mar-28 18:35N 48°31' W 122°42'2 5.7
2018-Mar-28 18:18N 48°31' W 122°40'2 5.6
2018-Mar-28 18:00N 48°31' W 122°37'1 1.5
2018-Mar-28 17:27N 48°31' W 122°37'  

Dump ship's entire track history